Osg Courageous — WDF7122 — position and weather

sailwx.info

Track history (hours):
 
Tides and Currents Weather Stations Pressure Air Temp Water Temp Dewpoint Dewpoint Depression Visibility Wind Speed Wind Dir Waves Ship Positions

Osg Courageous

Owner: OSG Ship Management, Inc, Tampa, FL. More information available from US FCC via Universal Licensing System and Coast Guard Vessel Documentation Center.

Last reported at 2014-Oct-30 23:32 UTC. Time now 2014-Oct-30 23:47 UTC.
Position N 27°57' W 082°27'.

Length 187 m; draft 7 m.

Type: Tanker. MMSI: 367481310.

Date/timePositionNaut miles runAvg speedWind from/ knotsBaromVisibWave heightAir tempDewpointWater temp
2014-Oct-30 23:32N 27°57' W 082°27'0 0.0
2014-Oct-30 22:32N 27°57' W 082°27'0 0.0
2014-Oct-30 21:32N 27°57' W 082°27'2 2.3
2014-Oct-30 20:33N 27°55' W 082°26'1 0.5
2014-Oct-30 19:32N 27°55' W 082°26'0 0.0
2014-Oct-30 18:32N 27°55' W 082°26'0 0.0
2014-Oct-30 17:32N 27°55' W 082°26'0 0.0
2014-Oct-30 16:32N 27°55' W 082°26'0 0.0
2014-Oct-30 15:29N 27°55' W 082°26'0 0.0
2014-Oct-30 14:32N 27°55' W 082°26'0 0.0
2014-Oct-30 13:29N 27°55' W 082°26'1 1.2
2014-Oct-30 12:33N 27°56' W 082°27'1 1.0
2014-Oct-30 11:32N 27°57' W 082°27'2 2.5
2014-Oct-30 10:33N 27°54' W 082°26'8 8.1
2014-Oct-30 09:33N 27°47' W 082°31'10 9.8
2014-Oct-30 08:33N 27°39' W 082°37'1010.1
2014-Oct-30 07:33N 27°37' W 082°48'1010.2
2014-Oct-30 06:33N 27°36' W 082°59'1210.7
2014-Oct-30 05:28N 27°35' W 083°12'  
2014-Oct-23 19:33N 29°22' W 094°49'5 4.9
2014-Oct-23 18:29N 29°22' W 094°55'0 0.0
2014-Oct-23 17:31N 29°22' W 094°55'0 0.0
2014-Oct-23 16:26N 29°22' W 094°55'0 0.0
2014-Oct-23 15:32N 29°22' W 094°55'0 0.0
2014-Oct-22 08:33N 29°22' W 094°55'2 1.9
2014-Oct-22 07:28N 29°23' W 094°53'1210.8
2014-Oct-22 06:21N 29°20' W 094°40'3 3.7
2014-Oct-22 05:29N 29°16' W 094°41'1 0.0
2014-Oct-21 07:09N 29°16' W 094°42'0 0.0
2014-Oct-21 06:23N 29°16' W 094°42'  
Track history (hours):
 
Tides and Currents Weather Stations Pressure Air Temp Water Temp Dewpoint Dewpoint Depression Visibility Wind Speed Wind Dir Waves Ship Positions

Osg Courageous

Owner: OSG Ship Management, Inc, Tampa, FL. More information available from US FCC via Universal Licensing System and Coast Guard Vessel Documentation Center.

Last reported at 2014-Oct-30 23:32 UTC. Time now 2014-Oct-30 23:47 UTC.
Position N 27°57' W 082°27'.

Length 187 m; draft 7 m.

Type: Tanker. MMSI: 367481310.

Date/timePositionNaut miles runAvg speedWind from/ knotsBaromVisibWave heightAir tempDewpointWater temp
2014-Oct-30 23:32N 27°57' W 082°27'0 0.0
2014-Oct-30 22:32N 27°57' W 082°27'0 0.0
2014-Oct-30 21:32N 27°57' W 082°27'2 2.3
2014-Oct-30 20:33N 27°55' W 082°26'1 0.5
2014-Oct-30 19:32N 27°55' W 082°26'0 0.0
2014-Oct-30 18:32N 27°55' W 082°26'0 0.0
2014-Oct-30 17:32N 27°55' W 082°26'0 0.0
2014-Oct-30 16:32N 27°55' W 082°26'0 0.0
2014-Oct-30 15:29N 27°55' W 082°26'0 0.0
2014-Oct-30 14:32N 27°55' W 082°26'0 0.0
2014-Oct-30 13:29N 27°55' W 082°26'1 1.2
2014-Oct-30 12:33N 27°56' W 082°27'1 1.0
2014-Oct-30 11:32N 27°57' W 082°27'2 2.5
2014-Oct-30 10:33N 27°54' W 082°26'8 8.1
2014-Oct-30 09:33N 27°47' W 082°31'10 9.8
2014-Oct-30 08:33N 27°39' W 082°37'1010.1
2014-Oct-30 07:33N 27°37' W 082°48'1010.2
2014-Oct-30 06:33N 27°36' W 082°59'1210.7
2014-Oct-30 05:28N 27°35' W 083°12'  
2014-Oct-23 19:33N 29°22' W 094°49'5 4.9
2014-Oct-23 18:29N 29°22' W 094°55'0 0.0
2014-Oct-23 17:31N 29°22' W 094°55'0 0.0
2014-Oct-23 16:26N 29°22' W 094°55'0 0.0
2014-Oct-23 15:32N 29°22' W 094°55'0 0.0
2014-Oct-22 08:33N 29°22' W 094°55'2 1.9
2014-Oct-22 07:28N 29°23' W 094°53'1210.8
2014-Oct-22 06:21N 29°20' W 094°40'3 3.7
2014-Oct-22 05:29N 29°16' W 094°41'1 0.0
2014-Oct-21 07:09N 29°16' W 094°42'0 0.0
2014-Oct-21 06:23N 29°16' W 094°42'  

Dump ship's entire track history